sensor_id;sensor_type;location;lat;lon;timestamp;P1;durP1;ratioP1;P2;durP2;ratioP2
65271;SDS011;51868;48.812;8.198;2022-10-17T00:01:07;9.18;;;3.10;;
65271;SDS011;51868;48.812;8.198;2022-10-17T00:03:36;10.10;;;3.28;;
65271;SDS011;51868;48.812;8.198;2022-10-17T00:06:06;6.00;;;3.28;;
65271;SDS011;51868;48.812;8.198;2022-10-17T00:08:37;4.80;;;3.00;;
65271;SDS011;51868;48.812;8.198;2022-10-17T00:11:07;11.90;;;3.55;;
65271;SDS011;51868;48.812;8.198;2022-10-17T00:16:07;9.63;;;4.15;;
65271;SDS011;51868;48.812;8.198;2022-10-17T00:18:36;11.82;;;3.08;;
65271;SDS011;51868;48.812;8.198;2022-10-17T00:21:04;10.77;;;3.40;;
65271;SDS011;51868;48.812;8.198;2022-10-17T00:23:32;6.13;;;3.08;;
65271;SDS011;51868;48.812;8.198;2022-10-17T00:26:01;9.13;;;3.20;;
65271;SDS011;51868;48.812;8.198;2022-10-17T00:28:30;5.70;;;2.90;;
65271;SDS011;51868;48.812;8.198;2022-10-17T00:30:59;9.98;;;3.10;;
65271;SDS011;51868;48.812;8.198;2022-10-17T00:33:28;4.45;;;3.00;;
65271;SDS011;51868;48.812;8.198;2022-10-17T00:36:04;8.15;;;3.80;;
65271;SDS011;51868;48.812;8.198;2022-10-17T00:38:35;6.28;;;3.30;;
65271;SDS011;51868;48.812;8.198;2022-10-17T00:41:04;8.70;;;3.00;;
65271;SDS011;51868;48.812;8.198;2022-10-17T00:43:47;4.85;;;2.95;;
65271;SDS011;51868;48.812;8.198;2022-10-17T00:46:20;5.20;;;3.03;;
65271;SDS011;51868;48.812;8.198;2022-10-17T00:48:50;5.50;;;3.25;;
65271;SDS011;51868;48.812;8.198;2022-10-17T00:51:24;9.77;;;3.10;;
65271;SDS011;51868;48.812;8.198;2022-10-17T00:53:57;5.22;;;2.90;;
65271;SDS011;51868;48.812;8.198;2022-10-17T00:56:26;7.55;;;2.80;;
65271;SDS011;51868;48.812;8.198;2022-10-17T00:58:54;3.95;;;2.58;;
65271;SDS011;51868;48.812;8.198;2022-10-17T01:01:22;4.18;;;2.60;;
65271;SDS011;51868;48.812;8.198;2022-10-17T01:03:50;8.43;;;2.42;;
65271;SDS011;51868;48.812;8.198;2022-10-17T01:06:22;12.77;;;2.75;;
65271;SDS011;51868;48.812;8.198;2022-10-17T01:08:52;6.47;;;2.28;;
65271;SDS011;51868;48.812;8.198;2022-10-17T01:11:25;6.03;;;3.03;;
65271;SDS011;51868;48.812;8.198;2022-10-17T01:14:03;5.60;;;2.67;;
65271;SDS011;51868;48.812;8.198;2022-10-17T01:16:38;4.60;;;2.30;;
65271;SDS011;51868;48.812;8.198;2022-10-17T01:19:23;6.35;;;2.40;;
65271;SDS011;51868;48.812;8.198;2022-10-17T01:22:04;6.38;;;2.58;;
65271;SDS011;51868;48.812;8.198;2022-10-17T01:24:42;4.85;;;2.35;;
65271;SDS011;51868;48.812;8.198;2022-10-17T01:27:25;7.82;;;2.40;;
65271;SDS011;51868;48.812;8.198;2022-10-17T01:30:13;9.05;;;3.10;;
65271;SDS011;51868;48.812;8.198;2022-10-17T01:33:04;8.95;;;2.70;;
65271;SDS011;51868;48.812;8.198;2022-10-17T01:35:38;6.75;;;2.63;;
65271;SDS011;51868;48.812;8.198;2022-10-17T01:38:11;5.00;;;2.47;;
65271;SDS011;51868;48.812;8.198;2022-10-17T01:40:45;6.40;;;2.42;;
65271;SDS011;51868;48.812;8.198;2022-10-17T01:43:17;6.30;;;2.40;;
65271;SDS011;51868;48.812;8.198;2022-10-17T01:45:49;4.40;;;2.40;;
65271;SDS011;51868;48.812;8.198;2022-10-17T01:48:24;6.20;;;2.60;;
65271;SDS011;51868;48.812;8.198;2022-10-17T01:50:57;3.70;;;2.38;;
65271;SDS011;51868;48.812;8.198;2022-10-17T01:53:30;6.20;;;2.20;;
65271;SDS011;51868;48.812;8.198;2022-10-17T01:56:01;6.68;;;2.42;;
65271;SDS011;51868;48.812;8.198;2022-10-17T01:58:31;6.90;;;2.70;;
65271;SDS011;51868;48.812;8.198;2022-10-17T02:01:04;9.77;;;2.65;;
65271;SDS011;51868;48.812;8.198;2022-10-17T02:03:37;17.30;;;2.90;;
65271;SDS011;51868;48.812;8.198;2022-10-17T02:06:09;6.65;;;2.83;;
65271;SDS011;51868;48.812;8.198;2022-10-17T02:08:41;11.63;;;3.05;;
65271;SDS011;51868;48.812;8.198;2022-10-17T02:11:10;7.97;;;2.83;;
65271;SDS011;51868;48.812;8.198;2022-10-17T02:13:44;9.43;;;2.72;;
65271;SDS011;51868;48.812;8.198;2022-10-17T02:16:27;8.07;;;2.35;;
65271;SDS011;51868;48.812;8.198;2022-10-17T02:19:09;6.53;;;2.42;;
65271;SDS011;51868;48.812;8.198;2022-10-17T02:21:46;8.80;;;2.40;;
65271;SDS011;51868;48.812;8.198;2022-10-17T02:24:19;5.97;;;3.03;;
65271;SDS011;51868;48.812;8.198;2022-10-17T02:26:58;8.93;;;3.25;;
65271;SDS011;51868;48.812;8.198;2022-10-17T02:29:33;9.77;;;3.00;;
65271;SDS011;51868;48.812;8.198;2022-10-17T02:32:06;6.63;;;2.75;;
65271;SDS011;51868;48.812;8.198;2022-10-17T02:34:39;8.13;;;2.33;;
65271;SDS011;51868;48.812;8.198;2022-10-17T02:37:09;8.30;;;2.63;;
65271;SDS011;51868;48.812;8.198;2022-10-17T02:39:41;9.18;;;2.58;;
65271;SDS011;51868;48.812;8.198;2022-10-17T02:42:11;7.20;;;2.45;;
65271;SDS011;51868;48.812;8.198;2022-10-17T02:44:41;4.57;;;2.33;;
65271;SDS011;51868;48.812;8.198;2022-10-17T02:47:14;6.03;;;2.20;;
65271;SDS011;51868;48.812;8.198;2022-10-17T02:49:50;8.40;;;2.38;;
65271;SDS011;51868;48.812;8.198;2022-10-17T02:52:21;6.43;;;2.55;;
65271;SDS011;51868;48.812;8.198;2022-10-17T02:54:56;8.07;;;2.13;;
65271;SDS011;51868;48.812;8.198;2022-10-17T02:57:27;9.98;;;2.30;;
65271;SDS011;51868;48.812;8.198;2022-10-17T03:00:01;5.30;;;2.28;;
65271;SDS011;51868;48.812;8.198;2022-10-17T03:02:37;3.13;;;2.03;;
65271;SDS011;51868;48.812;8.198;2022-10-17T03:05:08;6.68;;;2.53;;
65271;SDS011;51868;48.812;8.198;2022-10-17T03:07:37;10.18;;;2.75;;
65271;SDS011;51868;48.812;8.198;2022-10-17T03:10:05;11.18;;;2.75;;
65271;SDS011;51868;48.812;8.198;2022-10-17T03:12:33;6.03;;;2.30;;
65271;SDS011;51868;48.812;8.198;2022-10-17T03:15:01;5.22;;;2.30;;
65271;SDS011;51868;48.812;8.198;2022-10-17T03:17:29;5.25;;;2.30;;
65271;SDS011;51868;48.812;8.198;2022-10-17T03:19:56;5.05;;;2.40;;
65271;SDS011;51868;48.812;8.198;2022-10-17T03:22:26;7.85;;;2.63;;
65271;SDS011;51868;48.812;8.198;2022-10-17T03:24:54;10.52;;;2.65;;
65271;SDS011;51868;48.812;8.198;2022-10-17T03:27:23;5.43;;;2.53;;
65271;SDS011;51868;48.812;8.198;2022-10-17T03:29:51;8.07;;;2.90;;
65271;SDS011;51868;48.812;8.198;2022-10-17T03:32:19;8.50;;;3.15;;
65271;SDS011;51868;48.812;8.198;2022-10-17T03:34:47;9.57;;;2.55;;
65271;SDS011;51868;48.812;8.198;2022-10-17T03:37:14;6.68;;;2.83;;
65271;SDS011;51868;48.812;8.198;2022-10-17T03:39:43;10.35;;;3.70;;
65271;SDS011;51868;48.812;8.198;2022-10-17T03:42:11;7.45;;;2.60;;
65271;SDS011;51868;48.812;8.198;2022-10-17T03:44:39;5.18;;;2.30;;
65271;SDS011;51868;48.812;8.198;2022-10-17T03:47:07;5.22;;;2.30;;
65271;SDS011;51868;48.812;8.198;2022-10-17T03:49:39;4.82;;;2.30;;
65271;SDS011;51868;48.812;8.198;2022-10-17T03:52:09;10.02;;;2.30;;
65271;SDS011;51868;48.812;8.198;2022-10-17T03:54:37;3.88;;;2.33;;
65271;SDS011;51868;48.812;8.198;2022-10-17T03:57:06;6.57;;;2.65;;
65271;SDS011;51868;48.812;8.198;2022-10-17T03:59:34;5.82;;;2.10;;
65271;SDS011;51868;48.812;8.198;2022-10-17T04:02:02;5.07;;;2.03;;
65271;SDS011;51868;48.812;8.198;2022-10-17T04:04:29;4.00;;;2.97;;
65271;SDS011;51868;48.812;8.198;2022-10-17T04:06:57;3.72;;;2.45;;
65271;SDS011;51868;48.812;8.198;2022-10-17T04:09:25;6.55;;;2.00;;
65271;SDS011;51868;48.812;8.198;2022-10-17T04:11:53;5.82;;;2.50;;
65271;SDS011;51868;48.812;8.198;2022-10-17T04:14:24;4.90;;;2.22;;
65271;SDS011;51868;48.812;8.198;2022-10-17T04:16:52;5.20;;;2.67;;
65271;SDS011;51868;48.812;8.198;2022-10-17T04:19:21;8.35;;;3.10;;
65271;SDS011;51868;48.812;8.198;2022-10-17T04:21:50;9.02;;;3.05;;
65271;SDS011;51868;48.812;8.198;2022-10-17T04:24:18;5.03;;;2.40;;
65271;SDS011;51868;48.812;8.198;2022-10-17T04:26:48;8.82;;;2.72;;
65271;SDS011;51868;48.812;8.198;2022-10-17T04:29:16;3.95;;;2.53;;
65271;SDS011;51868;48.812;8.198;2022-10-17T04:31:45;6.07;;;2.42;;
65271;SDS011;51868;48.812;8.198;2022-10-17T04:34:13;5.28;;;2.90;;
65271;SDS011;51868;48.812;8.198;2022-10-17T04:36:40;5.90;;;2.67;;
65271;SDS011;51868;48.812;8.198;2022-10-17T04:39:08;5.72;;;2.55;;
65271;SDS011;51868;48.812;8.198;2022-10-17T04:41:36;8.48;;;2.83;;
65271;SDS011;51868;48.812;8.198;2022-10-17T04:44:04;7.80;;;2.60;;
65271;SDS011;51868;48.812;8.198;2022-10-17T04:46:32;5.70;;;2.63;;
65271;SDS011;51868;48.812;8.198;2022-10-17T04:49:03;5.50;;;2.35;;
65271;SDS011;51868;48.812;8.198;2022-10-17T04:51:31;3.85;;;2.58;;
65271;SDS011;51868;48.812;8.198;2022-10-17T04:53:58;4.00;;;2.60;;
65271;SDS011;51868;48.812;8.198;2022-10-17T04:56:26;9.52;;;2.88;;
65271;SDS011;51868;48.812;8.198;2022-10-17T04:58:54;7.10;;;2.65;;
65271;SDS011;51868;48.812;8.198;2022-10-17T05:01:22;4.10;;;2.50;;
65271;SDS011;51868;48.812;8.198;2022-10-17T05:03:50;9.23;;;2.75;;
65271;SDS011;51868;48.812;8.198;2022-10-17T05:06:20;7.93;;;2.50;;
65271;SDS011;51868;48.812;8.198;2022-10-17T05:08:49;7.65;;;3.80;;
65271;SDS011;51868;48.812;8.198;2022-10-17T05:11:18;7.20;;;3.45;;
65271;SDS011;51868;48.812;8.198;2022-10-17T05:13:50;12.82;;;3.15;;
65271;SDS011;51868;48.812;8.198;2022-10-17T05:16:19;4.78;;;2.28;;
65271;SDS011;51868;48.812;8.198;2022-10-17T05:18:49;10.35;;;2.40;;
65271;SDS011;51868;48.812;8.198;2022-10-17T05:21:20;4.97;;;2.42;;
65271;SDS011;51868;48.812;8.198;2022-10-17T05:23:50;4.32;;;2.05;;
65271;SDS011;51868;48.812;8.198;2022-10-17T05:26:18;6.85;;;2.28;;
65271;SDS011;51868;48.812;8.198;2022-10-17T05:28:46;6.70;;;2.67;;
65271;SDS011;51868;48.812;8.198;2022-10-17T05:31:14;5.43;;;2.30;;
65271;SDS011;51868;48.812;8.198;2022-10-17T05:33:42;6.75;;;2.70;;
65271;SDS011;51868;48.812;8.198;2022-10-17T05:36:09;3.80;;;2.70;;
65271;SDS011;51868;48.812;8.198;2022-10-17T05:38:38;6.38;;;2.92;;
65271;SDS011;51868;48.812;8.198;2022-10-17T05:41:06;6.45;;;2.85;;
65271;SDS011;51868;48.812;8.198;2022-10-17T05:43:34;6.95;;;2.45;;
65271;SDS011;51868;48.812;8.198;2022-10-17T05:46:02;5.90;;;2.28;;
65271;SDS011;51868;48.812;8.198;2022-10-17T05:48:31;4.05;;;2.63;;
65271;SDS011;51868;48.812;8.198;2022-10-17T05:51:00;6.38;;;3.25;;
65271;SDS011;51868;48.812;8.198;2022-10-17T05:53:33;5.80;;;2.80;;
65271;SDS011;51868;48.812;8.198;2022-10-17T05:56:04;4.72;;;2.58;;
65271;SDS011;51868;48.812;8.198;2022-10-17T05:58:33;12.60;;;3.17;;
65271;SDS011;51868;48.812;8.198;2022-10-17T06:03:44;5.25;;;2.65;;
65271;SDS011;51868;48.812;8.198;2022-10-17T06:06:12;7.68;;;2.92;;
65271;SDS011;51868;48.812;8.198;2022-10-17T06:08:40;6.88;;;2.78;;
65271;SDS011;51868;48.812;8.198;2022-10-17T06:11:10;5.65;;;3.00;;
65271;SDS011;51868;48.812;8.198;2022-10-17T06:13:38;11.18;;;3.00;;
65271;SDS011;51868;48.812;8.198;2022-10-17T06:16:06;11.60;;;3.47;;
65271;SDS011;51868;48.812;8.198;2022-10-17T06:18:34;6.70;;;2.78;;
65271;SDS011;51868;48.812;8.198;2022-10-17T06:21:02;9.40;;;3.33;;
65271;SDS011;51868;48.812;8.198;2022-10-17T06:23:30;9.43;;;3.70;;
65271;SDS011;51868;48.812;8.198;2022-10-17T06:28:33;6.22;;;3.08;;
65271;SDS011;51868;48.812;8.198;2022-10-17T06:31:03;6.95;;;3.80;;
65271;SDS011;51868;48.812;8.198;2022-10-17T06:33:31;5.50;;;4.00;;
65271;SDS011;51868;48.812;8.198;2022-10-17T06:35:59;4.85;;;3.22;;
65271;SDS011;51868;48.812;8.198;2022-10-17T06:38:27;9.45;;;3.28;;
65271;SDS011;51868;48.812;8.198;2022-10-17T06:41:00;15.15;;;4.00;;
65271;SDS011;51868;48.812;8.198;2022-10-17T06:43:30;5.63;;;3.65;;
65271;SDS011;51868;48.812;8.198;2022-10-17T06:45:59;12.95;;;3.70;;
65271;SDS011;51868;48.812;8.198;2022-10-17T06:48:26;6.22;;;4.00;;
65271;SDS011;51868;48.812;8.198;2022-10-17T06:50:57;8.75;;;4.53;;
65271;SDS011;51868;48.812;8.198;2022-10-17T06:53:25;7.47;;;4.10;;
65271;SDS011;51868;48.812;8.198;2022-10-17T06:55:53;7.55;;;4.20;;
65271;SDS011;51868;48.812;8.198;2022-10-17T06:58:26;6.50;;;4.28;;
65271;SDS011;51868;48.812;8.198;2022-10-17T07:00:57;6.13;;;4.35;;
65271;SDS011;51868;48.812;8.198;2022-10-17T07:03:27;10.18;;;4.72;;
65271;SDS011;51868;48.812;8.198;2022-10-17T07:05:55;12.90;;;5.00;;
65271;SDS011;51868;48.812;8.198;2022-10-17T07:08:23;10.25;;;4.93;;
65271;SDS011;51868;48.812;8.198;2022-10-17T07:10:53;11.85;;;4.72;;
65271;SDS011;51868;48.812;8.198;2022-10-17T07:13:23;9.50;;;4.75;;
65271;SDS011;51868;48.812;8.198;2022-10-17T07:15:53;7.03;;;4.80;;
65271;SDS011;51868;48.812;8.198;2022-10-17T07:18:28;15.02;;;6.63;;
65271;SDS011;51868;48.812;8.198;2022-10-17T07:20:55;10.43;;;5.97;;
65271;SDS011;51868;48.812;8.198;2022-10-17T07:23:26;13.82;;;7.07;;
65271;SDS011;51868;48.812;8.198;2022-10-17T07:25:57;8.57;;;6.22;;
65271;SDS011;51868;48.812;8.198;2022-10-17T07:28:26;9.35;;;5.60;;
65271;SDS011;51868;48.812;8.198;2022-10-17T07:30:54;6.93;;;4.95;;
65271;SDS011;51868;48.812;8.198;2022-10-17T07:33:22;9.63;;;5.28;;
65271;SDS011;51868;48.812;8.198;2022-10-17T07:35:51;9.90;;;5.88;;
65271;SDS011;51868;48.812;8.198;2022-10-17T07:38:19;7.63;;;5.47;;
65271;SDS011;51868;48.812;8.198;2022-10-17T07:40:52;6.32;;;5.35;;
65271;SDS011;51868;48.812;8.198;2022-10-17T07:43:21;8.18;;;5.40;;
65271;SDS011;51868;48.812;8.198;2022-10-17T07:45:50;12.18;;;5.28;;
65271;SDS011;51868;48.812;8.198;2022-10-17T07:48:19;8.05;;;4.47;;
65271;SDS011;51868;48.812;8.198;2022-10-17T07:50:53;10.60;;;4.43;;
65271;SDS011;51868;48.812;8.198;2022-10-17T07:53:38;14.27;;;5.05;;
65271;SDS011;51868;48.812;8.198;2022-10-17T07:56:13;7.93;;;5.20;;
65271;SDS011;51868;48.812;8.198;2022-10-17T07:58:40;14.98;;;5.63;;
65271;SDS011;51868;48.812;8.198;2022-10-17T08:01:09;10.02;;;5.50;;
65271;SDS011;51868;48.812;8.198;2022-10-17T08:03:42;11.50;;;4.63;;
65271;SDS011;51868;48.812;8.198;2022-10-17T08:06:13;14.65;;;5.45;;
65271;SDS011;51868;48.812;8.198;2022-10-17T08:08:41;11.93;;;4.88;;
65271;SDS011;51868;48.812;8.198;2022-10-17T08:11:09;10.68;;;4.80;;
65271;SDS011;51868;48.812;8.198;2022-10-17T08:13:38;8.25;;;5.20;;
65271;SDS011;51868;48.812;8.198;2022-10-17T08:16:07;13.02;;;4.70;;
65271;SDS011;51868;48.812;8.198;2022-10-17T08:18:38;10.13;;;4.88;;
65271;SDS011;51868;48.812;8.198;2022-10-17T08:21:06;9.20;;;4.90;;
65271;SDS011;51868;48.812;8.198;2022-10-17T08:23:35;6.38;;;4.25;;
65271;SDS011;51868;48.812;8.198;2022-10-17T08:26:04;7.38;;;4.43;;
65271;SDS011;51868;48.812;8.198;2022-10-17T08:28:36;12.73;;;4.85;;
65271;SDS011;51868;48.812;8.198;2022-10-17T08:31:05;14.40;;;5.00;;
65271;SDS011;51868;48.812;8.198;2022-10-17T08:33:33;9.38;;;4.90;;
65271;SDS011;51868;48.812;8.198;2022-10-17T08:36:02;12.90;;;4.80;;
65271;SDS011;51868;48.812;8.198;2022-10-17T08:38:31;16.45;;;5.18;;
65271;SDS011;51868;48.812;8.198;2022-10-17T08:41:05;14.55;;;5.47;;
65271;SDS011;51868;48.812;8.198;2022-10-17T08:43:42;10.45;;;4.90;;
65271;SDS011;51868;48.812;8.198;2022-10-17T08:46:18;12.40;;;5.00;;
65271;SDS011;51868;48.812;8.198;2022-10-17T08:48:46;8.30;;;4.75;;
65271;SDS011;51868;48.812;8.198;2022-10-17T08:51:18;6.15;;;4.10;;
65271;SDS011;51868;48.812;8.198;2022-10-17T08:53:50;11.20;;;5.80;;
65271;SDS011;51868;48.812;8.198;2022-10-17T08:56:24;10.18;;;4.18;;
65271;SDS011;51868;48.812;8.198;2022-10-17T08:59:16;7.18;;;4.10;;
65271;SDS011;51868;48.812;8.198;2022-10-17T09:01:46;9.25;;;4.32;;
65271;SDS011;51868;48.812;8.198;2022-10-17T09:07:13;8.15;;;3.47;;
65271;SDS011;51868;48.812;8.198;2022-10-17T09:09:50;8.77;;;4.00;;
65271;SDS011;51868;48.812;8.198;2022-10-17T09:18:10;7.18;;;3.08;;
65271;SDS011;51868;48.812;8.198;2022-10-17T09:20:46;5.30;;;3.28;;
65271;SDS011;51868;48.812;8.198;2022-10-17T09:23:19;4.82;;;3.20;;
65271;SDS011;51868;48.812;8.198;2022-10-17T09:25:49;6.18;;;3.30;;
65271;SDS011;51868;48.812;8.198;2022-10-17T09:28:22;4.80;;;3.15;;
65271;SDS011;51868;48.812;8.198;2022-10-17T09:30:54;5.22;;;2.80;;
65271;SDS011;51868;48.812;8.198;2022-10-17T09:33:26;10.27;;;2.80;;
65271;SDS011;51868;48.812;8.198;2022-10-17T09:36:09;4.65;;;2.92;;
65271;SDS011;51868;48.812;8.198;2022-10-17T09:38:41;6.47;;;3.40;;
65271;SDS011;51868;48.812;8.198;2022-10-17T09:41:20;4.72;;;3.00;;
65271;SDS011;51868;48.812;8.198;2022-10-17T09:44:13;5.32;;;3.22;;
65271;SDS011;51868;48.812;8.198;2022-10-17T09:46:46;5.97;;;3.00;;
65271;SDS011;51868;48.812;8.198;2022-10-17T09:49:31;3.50;;;2.92;;
65271;SDS011;51868;48.812;8.198;2022-10-17T09:52:00;6.32;;;3.20;;
65271;SDS011;51868;48.812;8.198;2022-10-17T09:54:38;8.55;;;3.33;;
65271;SDS011;51868;48.812;8.198;2022-10-17T09:57:08;5.50;;;3.13;;
65271;SDS011;51868;48.812;8.198;2022-10-17T09:59:40;4.22;;;2.88;;
65271;SDS011;51868;48.812;8.198;2022-10-17T10:02:17;5.43;;;2.83;;
65271;SDS011;51868;48.812;8.198;2022-10-17T10:04:54;6.25;;;2.78;;
65271;SDS011;51868;48.812;8.198;2022-10-17T10:07:33;6.68;;;2.97;;
65271;SDS011;51868;48.812;8.198;2022-10-17T10:10:03;6.75;;;3.42;;
65271;SDS011;51868;48.812;8.198;2022-10-17T10:12:34;6.78;;;2.70;;
65271;SDS011;51868;48.812;8.198;2022-10-17T10:15:26;6.07;;;3.13;;
65271;SDS011;51868;48.812;8.198;2022-10-17T10:17:58;3.38;;;2.78;;
65271;SDS011;51868;48.812;8.198;2022-10-17T10:20:27;8.00;;;2.83;;
65271;SDS011;51868;48.812;8.198;2022-10-17T10:25:52;5.55;;;2.70;;
65271;SDS011;51868;48.812;8.198;2022-10-17T10:28:24;3.35;;;2.55;;
65271;SDS011;51868;48.812;8.198;2022-10-17T10:30:56;6.68;;;2.70;;
65271;SDS011;51868;48.812;8.198;2022-10-17T10:33:27;3.85;;;2.53;;
65271;SDS011;51868;48.812;8.198;2022-10-17T10:35:56;7.47;;;2.85;;
65271;SDS011;51868;48.812;8.198;2022-10-17T10:38:27;3.75;;;2.83;;
65271;SDS011;51868;48.812;8.198;2022-10-17T10:40:56;4.20;;;2.60;;
65271;SDS011;51868;48.812;8.198;2022-10-17T10:43:32;7.93;;;3.00;;
65271;SDS011;51868;48.812;8.198;2022-10-17T10:46:03;6.90;;;3.20;;
65271;SDS011;51868;48.812;8.198;2022-10-17T10:48:48;8.32;;;3.28;;
65271;SDS011;51868;48.812;8.198;2022-10-17T10:51:18;4.95;;;3.05;;
65271;SDS011;51868;48.812;8.198;2022-10-17T10:53:51;5.20;;;2.78;;
65271;SDS011;51868;48.812;8.198;2022-10-17T10:56:27;4.47;;;2.95;;
65271;SDS011;51868;48.812;8.198;2022-10-17T10:59:00;8.65;;;3.10;;
65271;SDS011;51868;48.812;8.198;2022-10-17T11:01:33;4.43;;;3.13;;
65271;SDS011;51868;48.812;8.198;2022-10-17T11:04:20;8.05;;;2.80;;
65271;SDS011;51868;48.812;8.198;2022-10-17T11:06:54;8.73;;;3.00;;
65271;SDS011;51868;48.812;8.198;2022-10-17T11:09:29;8.85;;;2.75;;
65271;SDS011;51868;48.812;8.198;2022-10-17T11:12:14;4.80;;;2.78;;
65271;SDS011;51868;48.812;8.198;2022-10-17T11:14:48;11.13;;;2.70;;
65271;SDS011;51868;48.812;8.198;2022-10-17T11:17:24;3.45;;;2.63;;
65271;SDS011;51868;48.812;8.198;2022-10-17T11:20:00;4.80;;;2.63;;
65271;SDS011;51868;48.812;8.198;2022-10-17T11:22:35;2.75;;;2.20;;
65271;SDS011;51868;48.812;8.198;2022-10-17T11:25:20;11.73;;;2.90;;
65271;SDS011;51868;48.812;8.198;2022-10-17T11:27:56;4.10;;;2.60;;
65271;SDS011;51868;48.812;8.198;2022-10-17T11:30:32;3.42;;;2.20;;
65271;SDS011;51868;48.812;8.198;2022-10-17T11:33:09;2.90;;;2.10;;
65271;SDS011;51868;48.812;8.198;2022-10-17T11:35:41;4.72;;;2.20;;
65271;SDS011;51868;48.812;8.198;2022-10-17T11:38:13;5.78;;;2.22;;
65271;SDS011;51868;48.812;8.198;2022-10-17T11:40:45;6.40;;;2.30;;
65271;SDS011;51868;48.812;8.198;2022-10-17T11:43:17;4.20;;;2.10;;
65271;SDS011;51868;48.812;8.198;2022-10-17T11:45:52;3.33;;;2.25;;
65271;SDS011;51868;48.812;8.198;2022-10-17T11:48:26;4.80;;;2.47;;
65271;SDS011;51868;48.812;8.198;2022-10-17T11:50:59;3.80;;;1.92;;
65271;SDS011;51868;48.812;8.198;2022-10-17T11:53:54;6.10;;;2.30;;
65271;SDS011;51868;48.812;8.198;2022-10-17T11:56:28;8.15;;;2.35;;
65271;SDS011;51868;48.812;8.198;2022-10-17T11:59:16;3.60;;;1.90;;
65271;SDS011;51868;48.812;8.198;2022-10-17T12:02:00;5.07;;;2.05;;
65271;SDS011;51868;48.812;8.198;2022-10-17T12:04:38;3.28;;;1.98;;
65271;SDS011;51868;48.812;8.198;2022-10-17T12:07:16;6.15;;;2.15;;
65271;SDS011;51868;48.812;8.198;2022-10-17T12:09:48;5.18;;;2.03;;
65271;SDS011;51868;48.812;8.198;2022-10-17T12:12:25;5.07;;;2.50;;
65271;SDS011;51868;48.812;8.198;2022-10-17T12:14:57;6.88;;;2.03;;
65271;SDS011;51868;48.812;8.198;2022-10-17T12:17:56;5.97;;;2.37;;
65271;SDS011;51868;48.812;8.198;2022-10-17T12:20:37;5.90;;;2.10;;
65271;SDS011;51868;48.812;8.198;2022-10-17T12:23:19;6.28;;;2.25;;
65271;SDS011;51868;48.812;8.198;2022-10-17T12:25:51;5.28;;;2.40;;
65271;SDS011;51868;48.812;8.198;2022-10-17T12:28:25;3.33;;;2.17;;
65271;SDS011;51868;48.812;8.198;2022-10-17T12:30:57;8.02;;;2.33;;
65271;SDS011;51868;48.812;8.198;2022-10-17T12:33:29;3.35;;;2.00;;
65271;SDS011;51868;48.812;8.198;2022-10-17T12:42:29;5.32;;;2.20;;
65271;SDS011;51868;48.812;8.198;2022-10-17T12:44:58;2.78;;;2.10;;
65271;SDS011;51868;48.812;8.198;2022-10-17T12:47:26;5.45;;;2.10;;
65271;SDS011;51868;48.812;8.198;2022-10-17T12:50:02;5.60;;;1.90;;
65271;SDS011;51868;48.812;8.198;2022-10-17T12:52:52;4.22;;;2.40;;
65271;SDS011;51868;48.812;8.198;2022-10-17T12:55:30;2.90;;;2.00;;
65271;SDS011;51868;48.812;8.198;2022-10-17T12:57:58;4.75;;;2.10;;
65271;SDS011;51868;48.812;8.198;2022-10-17T13:00:30;2.30;;;1.75;;
65271;SDS011;51868;48.812;8.198;2022-10-17T13:03:03;4.68;;;2.03;;
65271;SDS011;51868;48.812;8.198;2022-10-17T13:05:37;4.50;;;2.13;;
65271;SDS011;51868;48.812;8.198;2022-10-17T13:08:12;4.65;;;2.20;;
65271;SDS011;51868;48.812;8.198;2022-10-17T13:10:44;5.18;;;2.00;;
65271;SDS011;51868;48.812;8.198;2022-10-17T13:13:19;4.85;;;1.90;;
65271;SDS011;51868;48.812;8.198;2022-10-17T13:15:49;7.18;;;1.85;;
65271;SDS011;51868;48.812;8.198;2022-10-17T13:18:19;2.60;;;1.70;;
65271;SDS011;51868;48.812;8.198;2022-10-17T13:20:55;3.35;;;1.73;;
65271;SDS011;51868;48.812;8.198;2022-10-17T13:23:28;6.38;;;1.90;;
65271;SDS011;51868;48.812;8.198;2022-10-17T13:26:09;5.50;;;2.28;;
65271;SDS011;51868;48.812;8.198;2022-10-17T13:28:45;7.93;;;2.15;;
65271;SDS011;51868;48.812;8.198;2022-10-17T13:31:28;4.05;;;2.10;;
65271;SDS011;51868;48.812;8.198;2022-10-17T13:34:00;8.98;;;2.28;;
65271;SDS011;51868;48.812;8.198;2022-10-17T13:36:29;2.83;;;1.75;;
65271;SDS011;51868;48.812;8.198;2022-10-17T13:38:59;7.70;;;1.85;;
65271;SDS011;51868;48.812;8.198;2022-10-17T13:41:41;4.13;;;2.25;;
65271;SDS011;51868;48.812;8.198;2022-10-17T13:44:10;2.35;;;1.77;;
65271;SDS011;51868;48.812;8.198;2022-10-17T13:46:44;5.07;;;2.13;;
65271;SDS011;51868;48.812;8.198;2022-10-17T13:49:20;5.60;;;1.80;;
65271;SDS011;51868;48.812;8.198;2022-10-17T13:51:51;4.95;;;2.22;;
65271;SDS011;51868;48.812;8.198;2022-10-17T13:54:36;4.22;;;2.13;;
65271;SDS011;51868;48.812;8.198;2022-10-17T13:57:19;3.40;;;1.90;;
65271;SDS011;51868;48.812;8.198;2022-10-17T13:59:49;5.22;;;1.73;;
65271;SDS011;51868;48.812;8.198;2022-10-17T14:02:20;3.85;;;1.70;;
65271;SDS011;51868;48.812;8.198;2022-10-17T14:04:59;4.03;;;2.00;;
65271;SDS011;51868;48.812;8.198;2022-10-17T14:07:48;4.57;;;2.03;;
65271;SDS011;51868;48.812;8.198;2022-10-17T14:10:38;3.42;;;2.00;;
65271;SDS011;51868;48.812;8.198;2022-10-17T14:13:16;3.38;;;1.90;;
65271;SDS011;51868;48.812;8.198;2022-10-17T14:15:48;5.32;;;2.00;;
65271;SDS011;51868;48.812;8.198;2022-10-17T14:18:18;4.20;;;2.10;;
65271;SDS011;51868;48.812;8.198;2022-10-17T14:20:48;4.75;;;2.13;;
65271;SDS011;51868;48.812;8.198;2022-10-17T14:23:37;6.03;;;1.73;;
65271;SDS011;51868;48.812;8.198;2022-10-17T14:26:13;6.03;;;2.30;;
65271;SDS011;51868;48.812;8.198;2022-10-17T14:28:45;5.22;;;2.10;;
65271;SDS011;51868;48.812;8.198;2022-10-17T14:31:19;5.97;;;2.20;;
65271;SDS011;51868;48.812;8.198;2022-10-17T14:33:50;5.03;;;2.25;;
65271;SDS011;51868;48.812;8.198;2022-10-17T14:36:20;3.42;;;2.10;;
65271;SDS011;51868;48.812;8.198;2022-10-17T14:38:57;3.60;;;1.88;;
65271;SDS011;51868;48.812;8.198;2022-10-17T14:41:28;5.20;;;2.20;;
65271;SDS011;51868;48.812;8.198;2022-10-17T14:44:19;4.78;;;1.98;;
65271;SDS011;51868;48.812;8.198;2022-10-17T14:46:54;8.05;;;1.92;;
65271;SDS011;51868;48.812;8.198;2022-10-17T14:49:31;7.47;;;1.95;;
65271;SDS011;51868;48.812;8.198;2022-10-17T14:54:52;5.35;;;2.05;;
65271;SDS011;51868;48.812;8.198;2022-10-17T14:57:25;4.32;;;2.25;;
65271;SDS011;51868;48.812;8.198;2022-10-17T14:59:55;5.70;;;2.67;;
65271;SDS011;51868;48.812;8.198;2022-10-17T15:02:24;4.93;;;1.90;;
65271;SDS011;51868;48.812;8.198;2022-10-17T15:04:54;3.70;;;1.95;;
65271;SDS011;51868;48.812;8.198;2022-10-17T15:07:21;8.60;;;1.90;;
65271;SDS011;51868;48.812;8.198;2022-10-17T15:09:50;4.82;;;2.30;;
65271;SDS011;51868;48.812;8.198;2022-10-17T15:12:19;4.45;;;2.08;;
65271;SDS011;51868;48.812;8.198;2022-10-17T15:14:51;2.40;;;2.03;;
65271;SDS011;51868;48.812;8.198;2022-10-17T15:17:21;4.35;;;2.40;;
65271;SDS011;51868;48.812;8.198;2022-10-17T15:19:52;4.68;;;2.10;;
65271;SDS011;51868;48.812;8.198;2022-10-17T15:22:20;7.25;;;2.08;;
65271;SDS011;51868;48.812;8.198;2022-10-17T15:24:48;5.32;;;2.20;;
65271;SDS011;51868;48.812;8.198;2022-10-17T15:27:17;6.15;;;1.90;;
65271;SDS011;51868;48.812;8.198;2022-10-17T15:29:46;2.65;;;2.15;;
65271;SDS011;51868;48.812;8.198;2022-10-17T15:32:14;6.30;;;1.98;;
65271;SDS011;51868;48.812;8.198;2022-10-17T15:34:44;2.63;;;1.90;;
65271;SDS011;51868;48.812;8.198;2022-10-17T15:37:16;6.40;;;2.10;;
65271;SDS011;51868;48.812;8.198;2022-10-17T15:39:47;5.75;;;2.00;;
65271;SDS011;51868;48.812;8.198;2022-10-17T15:42:19;2.38;;;1.92;;
65271;SDS011;51868;48.812;8.198;2022-10-17T15:44:47;2.97;;;1.83;;